This is the latest recevied weather packets stored in our database for station/object OM2RC-6. If no packets are shown the sender has not sent any weather packets the latest 1 day(s).
| Time | Temp. | Humidity | Pressure | Rain* | Wind** | Luminosity | Snow |
|---|---|---|---|---|---|---|---|
| 1778040320 | 14.44° C | 100% | 1009.6 hPa | - | 2.68 m/s, 142° | - | - |
| 1778040019 | 13.89° C | 100% | 1009.7 hPa | - | 0.89 m/s, 209° | - | - |
| 1778039718 | 13.33° C | 100% | 1009.6 hPa | - | 1.79 m/s, 163° | - | - |
| 1778039417 | 13.89° C | 100% | 1009.6 hPa | - | 2.68 m/s, 149° | - | - |
| 1778039116 | 13.89° C | 100% | 1009.6 hPa | - | 2.24 m/s, 159° | - | - |
| 1778038815 | 13.33° C | 100% | 1009.6 hPa | - | 1.79 m/s, 157° | - | - |
| 1778038213 | 13.33° C | 100% | 1009.6 hPa | - | 2.24 m/s, 153° | - | - |
| 1778037611 | 12.78° C | 100% | 1009.5 hPa | - | 1.34 m/s, 197° | - | - |
| 1778037310 | 13.33° C | 100% | 1009.4 hPa | - | 1.34 m/s, 166° | - | - |
| 1778037009 | 13.33° C | 100% | 1009.4 hPa | - | 1.79 m/s, 182° | - | - |
| 1778036708 | 14.44° C | 100% | 1009.2 hPa | - | 2.24 m/s, 154° | - | - |
| 1778036407 | 13.89° C | 100% | 1009.1 hPa | - | 2.24 m/s, 146° | - | - |
| 1778036106 | 13.89° C | 100% | 1009.2 hPa | - | 2.68 m/s, 152° | - | - |
| 1778035804 | 13.89° C | 100% | 1009.2 hPa | - | 2.68 m/s, 153° | - | - |
| 1778035502 | 14.44° C | 100% | 1009.1 hPa | - | 2.68 m/s, 146° | - | - |
| 1778035201 | 14.44° C | 100% | 1009.1 hPa | - | 2.68 m/s, 154° | - | - |
| 1778034900 | 14.44° C | 100% | 1009.1 hPa | - | 2.68 m/s, 160° | - | - |
| 1778034298 | 14.44° C | 100% | 1009.1 hPa | - | 2.68 m/s, 158° | - | - |
| 1778033696 | 14.44° C | 100% | 1009.1 hPa | - | 3.13 m/s, 152° | - | - |
| 1778033395 | 14.44° C | 100% | 1009.1 hPa | - | 3.13 m/s, 153° | - | - |
| 1778033094 | 14.44° C | 100% | 1008.9 hPa | - | 3.58 m/s, 152° | - | - |
| 1778032793 | 14.44° C | 100% | 1008.9 hPa | - | 3.58 m/s, 152° | - | - |
| 1778032492 | 14.44° C | 100% | 1008.9 hPa | - | 3.13 m/s, 153° | - | - |
| 1778032191 | 15° C | 100% | 1008.8 hPa | - | 3.58 m/s, 147° | - | - |
| 1778031589 | 14.44° C | 100% | 1008.8 hPa | - | 3.13 m/s, 153° | - | - |
* Rain since midnight (hover to see other rain measurements)
** Current wind speed in m/s (hover to see current wind gust speed)